sensor_id;sensor_type;location;lat;lon;timestamp;temperature;humidity
14850;DHT22;7517;48.400;11.770;2023-07-24T00:01:43;23.50;52.70
14850;DHT22;7517;48.400;11.770;2023-07-24T00:04:10;23.50;52.80
14850;DHT22;7517;48.400;11.770;2023-07-24T00:06:37;23.50;52.80
14850;DHT22;7517;48.400;11.770;2023-07-24T00:09:04;23.50;52.90
14850;DHT22;7517;48.400;11.770;2023-07-24T00:11:31;23.40;52.90
14850;DHT22;7517;48.400;11.770;2023-07-24T00:14:00;23.40;53.00
14850;DHT22;7517;48.400;11.770;2023-07-24T00:16:28;23.40;53.00
14850;DHT22;7517;48.400;11.770;2023-07-24T00:18:56;23.30;53.00
14850;DHT22;7517;48.400;11.770;2023-07-24T00:21:23;23.30;53.00
14850;DHT22;7517;48.400;11.770;2023-07-24T00:23:50;23.30;53.10
14850;DHT22;7517;48.400;11.770;2023-07-24T00:26:17;23.30;53.20
14850;DHT22;7517;48.400;11.770;2023-07-24T00:28:44;23.20;53.20
14850;DHT22;7517;48.400;11.770;2023-07-24T00:31:13;23.20;53.30
14850;DHT22;7517;48.400;11.770;2023-07-24T00:33:40;23.20;53.20
14850;DHT22;7517;48.400;11.770;2023-07-24T00:36:07;23.20;53.20
14850;DHT22;7517;48.400;11.770;2023-07-24T00:38:35;23.20;53.20
14850;DHT22;7517;48.400;11.770;2023-07-24T00:41:02;23.20;53.30
14850;DHT22;7517;48.400;11.770;2023-07-24T00:43:29;23.20;53.30
14850;DHT22;7517;48.400;11.770;2023-07-24T00:45:57;23.10;53.40
14850;DHT22;7517;48.400;11.770;2023-07-24T00:48:26;23.10;53.60
14850;DHT22;7517;48.400;11.770;2023-07-24T00:50:54;23.10;53.70
14850;DHT22;7517;48.400;11.770;2023-07-24T00:53:22;23.10;53.80
14850;DHT22;7517;48.400;11.770;2023-07-24T00:55:49;23.10;53.80
14850;DHT22;7517;48.400;11.770;2023-07-24T00:58:17;23.00;53.80
14850;DHT22;7517;48.400;11.770;2023-07-24T01:00:45;23.00;53.80
14850;DHT22;7517;48.400;11.770;2023-07-24T01:03:13;23.00;53.80
14850;DHT22;7517;48.400;11.770;2023-07-24T01:05:42;23.00;53.80
14850;DHT22;7517;48.400;11.770;2023-07-24T01:08:09;23.00;53.90
14850;DHT22;7517;48.400;11.770;2023-07-24T01:10:36;22.90;53.90
14850;DHT22;7517;48.400;11.770;2023-07-24T01:13:08;22.90;54.00
14850;DHT22;7517;48.400;11.770;2023-07-24T01:15:48;22.90;54.20
14850;DHT22;7517;48.400;11.770;2023-07-24T01:18:24;22.90;54.20
14850;DHT22;7517;48.400;11.770;2023-07-24T01:20:57;22.80;54.10
14850;DHT22;7517;48.400;11.770;2023-07-24T01:23:41;22.80;54.20
14850;DHT22;7517;48.400;11.770;2023-07-24T01:26:21;22.80;54.50
14850;DHT22;7517;48.400;11.770;2023-07-24T01:28:49;22.70;54.30
14850;DHT22;7517;48.400;11.770;2023-07-24T01:31:16;22.70;54.80
14850;DHT22;7517;48.400;11.770;2023-07-24T01:33:44;22.70;54.30
14850;DHT22;7517;48.400;11.770;2023-07-24T01:36:13;22.70;54.30
14850;DHT22;7517;48.400;11.770;2023-07-24T01:38:41;22.60;54.30
14850;DHT22;7517;48.400;11.770;2023-07-24T01:41:10;22.60;54.30
14850;DHT22;7517;48.400;11.770;2023-07-24T01:43:39;22.60;54.40
14850;DHT22;7517;48.400;11.770;2023-07-24T01:46:06;22.50;54.50
14850;DHT22;7517;48.400;11.770;2023-07-24T01:48:34;22.50;54.60
14850;DHT22;7517;48.400;11.770;2023-07-24T01:51:01;22.50;54.70
14850;DHT22;7517;48.400;11.770;2023-07-24T01:53:28;22.40;55.30
14850;DHT22;7517;48.400;11.770;2023-07-24T01:55:55;22.40;54.80
14850;DHT22;7517;48.400;11.770;2023-07-24T01:58:23;22.50;55.00
14850;DHT22;7517;48.400;11.770;2023-07-24T02:00:54;22.50;55.00
14850;DHT22;7517;48.400;11.770;2023-07-24T02:03:22;22.40;55.10
14850;DHT22;7517;48.400;11.770;2023-07-24T02:05:49;22.40;54.90
14850;DHT22;7517;48.400;11.770;2023-07-24T02:08:17;22.50;55.00
14850;DHT22;7517;48.400;11.770;2023-07-24T02:10:48;22.50;54.90
14850;DHT22;7517;48.400;11.770;2023-07-24T02:13:16;22.50;55.00
14850;DHT22;7517;48.400;11.770;2023-07-24T02:15:43;22.50;55.00
14850;DHT22;7517;48.400;11.770;2023-07-24T02:18:12;22.50;55.00
14850;DHT22;7517;48.400;11.770;2023-07-24T02:20:39;22.50;55.10
14850;DHT22;7517;48.400;11.770;2023-07-24T02:23:07;22.50;55.20
14850;DHT22;7517;48.400;11.770;2023-07-24T02:25:36;22.50;55.30
14850;DHT22;7517;48.400;11.770;2023-07-24T02:28:03;22.50;55.40
14850;DHT22;7517;48.400;11.770;2023-07-24T02:30:30;22.50;55.50
14850;DHT22;7517;48.400;11.770;2023-07-24T02:32:58;22.50;55.40
14850;DHT22;7517;48.400;11.770;2023-07-24T02:35:26;22.60;55.40
14850;DHT22;7517;48.400;11.770;2023-07-24T02:37:54;22.60;55.40
14850;DHT22;7517;48.400;11.770;2023-07-24T02:40:21;22.60;55.50
14850;DHT22;7517;48.400;11.770;2023-07-24T02:42:48;22.60;55.50
14850;DHT22;7517;48.400;11.770;2023-07-24T02:45:16;22.60;55.50
14850;DHT22;7517;48.400;11.770;2023-07-24T02:47:43;22.60;55.70
14850;DHT22;7517;48.400;11.770;2023-07-24T02:50:10;22.70;56.30
14850;DHT22;7517;48.400;11.770;2023-07-24T02:52:38;22.70;57.20
14850;DHT22;7517;48.400;11.770;2023-07-24T02:55:06;22.70;58.30
14850;DHT22;7517;48.400;11.770;2023-07-24T02:57:34;22.70;58.60
14850;DHT22;7517;48.400;11.770;2023-07-24T03:00:01;22.70;59.10
14850;DHT22;7517;48.400;11.770;2023-07-24T03:02:29;22.60;58.80
14850;DHT22;7517;48.400;11.770;2023-07-24T03:04:56;22.60;58.80
14850;DHT22;7517;48.400;11.770;2023-07-24T03:07:23;22.50;59.10
14850;DHT22;7517;48.400;11.770;2023-07-24T03:09:52;22.50;59.60
14850;DHT22;7517;48.400;11.770;2023-07-24T03:12:19;22.40;60.40
14850;DHT22;7517;48.400;11.770;2023-07-24T03:14:47;22.40;60.90
14850;DHT22;7517;48.400;11.770;2023-07-24T03:17:14;22.40;61.30
14850;DHT22;7517;48.400;11.770;2023-07-24T03:19:42;22.40;61.60
14850;DHT22;7517;48.400;11.770;2023-07-24T03:22:09;22.30;61.50
14850;DHT22;7517;48.400;11.770;2023-07-24T03:24:36;22.30;62.00
14850;DHT22;7517;48.400;11.770;2023-07-24T03:27:05;22.30;62.90
14850;DHT22;7517;48.400;11.770;2023-07-24T03:29:32;22.30;64.00
14850;DHT22;7517;48.400;11.770;2023-07-24T03:32:00;22.30;64.50
14850;DHT22;7517;48.400;11.770;2023-07-24T03:34:27;22.30;65.00
14850;DHT22;7517;48.400;11.770;2023-07-24T03:36:54;22.30;65.50
14850;DHT22;7517;48.400;11.770;2023-07-24T03:39:21;22.20;66.00
14850;DHT22;7517;48.400;11.770;2023-07-24T03:41:49;22.30;66.60
14850;DHT22;7517;48.400;11.770;2023-07-24T03:44:17;22.30;66.90
14850;DHT22;7517;48.400;11.770;2023-07-24T03:46:44;22.30;67.40
14850;DHT22;7517;48.400;11.770;2023-07-24T03:49:11;22.30;67.70
14850;DHT22;7517;48.400;11.770;2023-07-24T03:51:39;22.30;67.90
14850;DHT22;7517;48.400;11.770;2023-07-24T03:54:06;22.30;68.20
14850;DHT22;7517;48.400;11.770;2023-07-24T03:56:33;22.40;68.30
14850;DHT22;7517;48.400;11.770;2023-07-24T03:59:00;22.40;68.50
14850;DHT22;7517;48.400;11.770;2023-07-24T04:01:29;22.40;68.90
14850;DHT22;7517;48.400;11.770;2023-07-24T04:03:56;22.50;69.60
14850;DHT22;7517;48.400;11.770;2023-07-24T04:06:23;22.50;69.50
14850;DHT22;7517;48.400;11.770;2023-07-24T04:08:50;22.50;69.70
14850;DHT22;7517;48.400;11.770;2023-07-24T04:11:17;22.50;69.80
14850;DHT22;7517;48.400;11.770;2023-07-24T04:13:45;22.60;70.10
14850;DHT22;7517;48.400;11.770;2023-07-24T04:16:12;22.60;70.20
14850;DHT22;7517;48.400;11.770;2023-07-24T04:18:41;22.60;70.30
14850;DHT22;7517;48.400;11.770;2023-07-24T04:21:08;22.60;70.50
14850;DHT22;7517;48.400;11.770;2023-07-24T04:23:35;22.60;70.20
14850;DHT22;7517;48.400;11.770;2023-07-24T04:26:02;22.70;70.30
14850;DHT22;7517;48.400;11.770;2023-07-24T04:28:29;22.70;70.50
14850;DHT22;7517;48.400;11.770;2023-07-24T04:31:00;22.70;70.70
14850;DHT22;7517;48.400;11.770;2023-07-24T04:33:27;22.70;70.80
14850;DHT22;7517;48.400;11.770;2023-07-24T04:35:56;22.70;70.30
14850;DHT22;7517;48.400;11.770;2023-07-24T04:38:23;22.80;70.30
14850;DHT22;7517;48.400;11.770;2023-07-24T04:40:50;22.80;70.10
14850;DHT22;7517;48.400;11.770;2023-07-24T04:43:18;22.80;69.90
14850;DHT22;7517;48.400;11.770;2023-07-24T04:45:45;22.80;69.60
14850;DHT22;7517;48.400;11.770;2023-07-24T04:48:12;22.80;69.80
14850;DHT22;7517;48.400;11.770;2023-07-24T04:50:40;22.80;69.90
14850;DHT22;7517;48.400;11.770;2023-07-24T04:53:11;22.80;70.70
14850;DHT22;7517;48.400;11.770;2023-07-24T04:55:38;22.80;70.60
14850;DHT22;7517;48.400;11.770;2023-07-24T04:58:05;22.80;70.30
14850;DHT22;7517;48.400;11.770;2023-07-24T05:00:33;22.90;70.80
14850;DHT22;7517;48.400;11.770;2023-07-24T05:03:00;22.80;69.90
14850;DHT22;7517;48.400;11.770;2023-07-24T05:05:27;22.90;70.00
14850;DHT22;7517;48.400;11.770;2023-07-24T05:07:54;22.90;70.50
14850;DHT22;7517;48.400;11.770;2023-07-24T05:10:23;22.90;71.30
14850;DHT22;7517;48.400;11.770;2023-07-24T05:12:51;22.90;72.00
14850;DHT22;7517;48.400;11.770;2023-07-24T05:15:18;22.90;72.00
14850;DHT22;7517;48.400;11.770;2023-07-24T05:17:45;22.90;72.10
14850;DHT22;7517;48.400;11.770;2023-07-24T05:20:12;22.90;72.00
14850;DHT22;7517;48.400;11.770;2023-07-24T05:22:40;22.90;72.10
14850;DHT22;7517;48.400;11.770;2023-07-24T05:25:08;22.90;72.60
14850;DHT22;7517;48.400;11.770;2023-07-24T05:27:37;22.90;72.40
14850;DHT22;7517;48.400;11.770;2023-07-24T05:30:05;22.90;72.40
14850;DHT22;7517;48.400;11.770;2023-07-24T05:32:33;22.90;72.30
14850;DHT22;7517;48.400;11.770;2023-07-24T05:35:00;22.80;72.00
14850;DHT22;7517;48.400;11.770;2023-07-24T05:37:27;22.80;72.40
14850;DHT22;7517;48.400;11.770;2023-07-24T05:39:55;22.80;72.90
14850;DHT22;7517;48.400;11.770;2023-07-24T05:42:23;22.70;73.20
14850;DHT22;7517;48.400;11.770;2023-07-24T05:44:52;22.70;73.10
14850;DHT22;7517;48.400;11.770;2023-07-24T05:47:19;22.70;73.30
14850;DHT22;7517;48.400;11.770;2023-07-24T05:49:47;22.70;73.20
14850;DHT22;7517;48.400;11.770;2023-07-24T05:52:15;22.70;73.30
14850;DHT22;7517;48.400;11.770;2023-07-24T05:54:42;22.70;73.60
14850;DHT22;7517;48.400;11.770;2023-07-24T05:57:09;22.70;73.70
14850;DHT22;7517;48.400;11.770;2023-07-24T05:59:36;22.60;73.60
14850;DHT22;7517;48.400;11.770;2023-07-24T06:02:06;22.70;73.70
14850;DHT22;7517;48.400;11.770;2023-07-24T06:04:35;22.70;73.20
14850;DHT22;7517;48.400;11.770;2023-07-24T06:07:03;22.70;72.70
14850;DHT22;7517;48.400;11.770;2023-07-24T06:09:30;22.70;72.70
14850;DHT22;7517;48.400;11.770;2023-07-24T06:11:58;22.70;72.10
14850;DHT22;7517;48.400;11.770;2023-07-24T06:14:25;22.70;72.40
14850;DHT22;7517;48.400;11.770;2023-07-24T06:16:52;22.70;72.40
14850;DHT22;7517;48.400;11.770;2023-07-24T06:19:21;22.70;73.00
14850;DHT22;7517;48.400;11.770;2023-07-24T06:21:48;22.70;73.80
14850;DHT22;7517;48.400;11.770;2023-07-24T06:24:15;22.70;73.80
14850;DHT22;7517;48.400;11.770;2023-07-24T06:26:43;22.80;74.10
14850;DHT22;7517;48.400;11.770;2023-07-24T06:29:10;22.80;74.60
14850;DHT22;7517;48.400;11.770;2023-07-24T06:31:39;22.90;74.20
14850;DHT22;7517;48.400;11.770;2023-07-24T06:34:06;22.90;74.20
14850;DHT22;7517;48.400;11.770;2023-07-24T06:36:35;23.00;74.70
14850;DHT22;7517;48.400;11.770;2023-07-24T06:39:02;23.10;74.40
14850;DHT22;7517;48.400;11.770;2023-07-24T06:41:29;23.10;73.70
14850;DHT22;7517;48.400;11.770;2023-07-24T06:43:57;23.20;73.80
14850;DHT22;7517;48.400;11.770;2023-07-24T06:46:24;23.20;73.90
14850;DHT22;7517;48.400;11.770;2023-07-24T06:48:51;23.30;74.00
14850;DHT22;7517;48.400;11.770;2023-07-24T06:51:19;23.30;74.20
14850;DHT22;7517;48.400;11.770;2023-07-24T06:53:48;23.40;74.40
14850;DHT22;7517;48.400;11.770;2023-07-24T06:56:15;23.40;74.00
14850;DHT22;7517;48.400;11.770;2023-07-24T06:58:42;23.50;74.30
14850;DHT22;7517;48.400;11.770;2023-07-24T07:01:09;23.60;73.90
14850;DHT22;7517;48.400;11.770;2023-07-24T07:03:37;23.60;73.70
14850;DHT22;7517;48.400;11.770;2023-07-24T07:06:04;23.80;73.60
14850;DHT22;7517;48.400;11.770;2023-07-24T07:08:32;23.80;73.20
14850;DHT22;7517;48.400;11.770;2023-07-24T07:11:01;23.90;73.10
14850;DHT22;7517;48.400;11.770;2023-07-24T07:13:28;24.00;72.90
14850;DHT22;7517;48.400;11.770;2023-07-24T07:15:55;24.10;73.10
14850;DHT22;7517;48.400;11.770;2023-07-24T07:18:23;24.20;72.70
14850;DHT22;7517;48.400;11.770;2023-07-24T07:20:51;24.30;72.50
14850;DHT22;7517;48.400;11.770;2023-07-24T07:23:19;24.50;72.10
14850;DHT22;7517;48.400;11.770;2023-07-24T07:25:48;24.60;71.40
14850;DHT22;7517;48.400;11.770;2023-07-24T07:28:17;24.80;72.00
14850;DHT22;7517;48.400;11.770;2023-07-24T07:30:44;25.00;72.00
14850;DHT22;7517;48.400;11.770;2023-07-24T07:33:12;25.10;71.70
14850;DHT22;7517;48.400;11.770;2023-07-24T07:35:39;25.20;70.80
14850;DHT22;7517;48.400;11.770;2023-07-24T07:38:06;25.30;70.30
14850;DHT22;7517;48.400;11.770;2023-07-24T07:40:33;25.30;70.50
14850;DHT22;7517;48.400;11.770;2023-07-24T07:43:03;25.40;69.60
14850;DHT22;7517;48.400;11.770;2023-07-24T07:45:32;25.40;69.00
14850;DHT22;7517;48.400;11.770;2023-07-24T07:47:59;25.40;69.20
14850;DHT22;7517;48.400;11.770;2023-07-24T07:50:26;25.50;69.50
14850;DHT22;7517;48.400;11.770;2023-07-24T07:52:53;25.50;69.80
14850;DHT22;7517;48.400;11.770;2023-07-24T07:55:21;25.50;69.80
14850;DHT22;7517;48.400;11.770;2023-07-24T07:57:49;25.50;69.70
14850;DHT22;7517;48.400;11.770;2023-07-24T08:00:16;25.50;69.30
14850;DHT22;7517;48.400;11.770;2023-07-24T08:02:45;25.50;69.40
14850;DHT22;7517;48.400;11.770;2023-07-24T08:05:12;25.50;69.30
14850;DHT22;7517;48.400;11.770;2023-07-24T08:07:40;25.50;68.70
14850;DHT22;7517;48.400;11.770;2023-07-24T08:10:08;25.40;68.20
14850;DHT22;7517;48.400;11.770;2023-07-24T08:12:35;25.50;68.00
14850;DHT22;7517;48.400;11.770;2023-07-24T08:15:04;25.30;67.50
14850;DHT22;7517;48.400;11.770;2023-07-24T08:17:32;25.30;67.60
14850;DHT22;7517;48.400;11.770;2023-07-24T08:20:01;25.20;67.50
14850;DHT22;7517;48.400;11.770;2023-07-24T08:22:29;25.10;67.30
14850;DHT22;7517;48.400;11.770;2023-07-24T08:24:56;25.10;67.70
14850;DHT22;7517;48.400;11.770;2023-07-24T08:27:23;25.00;67.20
14850;DHT22;7517;48.400;11.770;2023-07-24T08:29:52;24.90;67.40
14850;DHT22;7517;48.400;11.770;2023-07-24T08:32:19;24.80;67.50
14850;DHT22;7517;48.400;11.770;2023-07-24T08:34:46;24.70;67.40
14850;DHT22;7517;48.400;11.770;2023-07-24T08:37:15;24.60;67.10
14850;DHT22;7517;48.400;11.770;2023-07-24T08:39:42;24.60;67.30
14850;DHT22;7517;48.400;11.770;2023-07-24T08:42:10;24.50;67.30
14850;DHT22;7517;48.400;11.770;2023-07-24T08:44:39;24.40;67.70
14850;DHT22;7517;48.400;11.770;2023-07-24T08:47:10;24.40;67.80
14850;DHT22;7517;48.400;11.770;2023-07-24T08:49:39;24.30;68.20
14850;DHT22;7517;48.400;11.770;2023-07-24T08:52:08;24.30;68.00
14850;DHT22;7517;48.400;11.770;2023-07-24T08:54:37;24.20;67.90
14850;DHT22;7517;48.400;11.770;2023-07-24T08:57:06;24.20;68.10
14850;DHT22;7517;48.400;11.770;2023-07-24T08:59:34;24.20;68.20
14850;DHT22;7517;48.400;11.770;2023-07-24T09:02:01;24.20;68.70
14850;DHT22;7517;48.400;11.770;2023-07-24T09:04:30;24.20;69.50
14850;DHT22;7517;48.400;11.770;2023-07-24T09:06:57;24.10;70.00
14850;DHT22;7517;48.400;11.770;2023-07-24T09:09:29;24.20;70.80
14850;DHT22;7517;48.400;11.770;2023-07-24T09:11:59;24.20;70.90
14850;DHT22;7517;48.400;11.770;2023-07-24T09:14:27;24.20;72.20
14850;DHT22;7517;48.400;11.770;2023-07-24T09:17:03;24.20;72.10
14850;DHT22;7517;48.400;11.770;2023-07-24T09:19:31;24.30;73.30
14850;DHT22;7517;48.400;11.770;2023-07-24T09:22:08;24.30;72.60
14850;DHT22;7517;48.400;11.770;2023-07-24T09:24:49;24.40;73.00
14850;DHT22;7517;48.400;11.770;2023-07-24T09:27:19;24.50;74.60
14850;DHT22;7517;48.400;11.770;2023-07-24T09:29:46;24.60;72.90
14850;DHT22;7517;48.400;11.770;2023-07-24T09:32:21;24.70;72.60
14850;DHT22;7517;48.400;11.770;2023-07-24T09:34:49;24.80;73.30
14850;DHT22;7517;48.400;11.770;2023-07-24T09:37:26;24.90;71.80
14850;DHT22;7517;48.400;11.770;2023-07-24T09:39:54;24.90;70.70
14850;DHT22;7517;48.400;11.770;2023-07-24T09:42:30;25.10;70.80
14850;DHT22;7517;48.400;11.770;2023-07-24T09:44:58;25.10;70.20
14850;DHT22;7517;48.400;11.770;2023-07-24T09:47:25;25.20;69.80
14850;DHT22;7517;48.400;11.770;2023-07-24T09:49:53;25.30;69.40
14850;DHT22;7517;48.400;11.770;2023-07-24T09:52:20;25.40;69.10
14850;DHT22;7517;48.400;11.770;2023-07-24T09:54:55;25.40;68.90
14850;DHT22;7517;48.400;11.770;2023-07-24T09:57:28;25.50;69.10
14850;DHT22;7517;48.400;11.770;2023-07-24T09:59:58;25.50;69.70
14850;DHT22;7517;48.400;11.770;2023-07-24T10:02:28;25.60;69.50
14850;DHT22;7517;48.400;11.770;2023-07-24T10:04:56;25.60;68.70
14850;DHT22;7517;48.400;11.770;2023-07-24T10:07:24;25.70;69.70
14850;DHT22;7517;48.400;11.770;2023-07-24T10:09:52;25.80;69.20
14850;DHT22;7517;48.400;11.770;2023-07-24T10:12:22;25.80;69.00
14850;DHT22;7517;48.400;11.770;2023-07-24T10:14:56;25.90;70.20
14850;DHT22;7517;48.400;11.770;2023-07-24T10:17:37;26.00;68.40
14850;DHT22;7517;48.400;11.770;2023-07-24T10:20:06;26.10;69.10
14850;DHT22;7517;48.400;11.770;2023-07-24T10:22:34;26.20;68.20
14850;DHT22;7517;48.400;11.770;2023-07-24T10:25:03;26.20;67.80
14850;DHT22;7517;48.400;11.770;2023-07-24T10:27:31;26.30;68.20
14850;DHT22;7517;48.400;11.770;2023-07-24T10:30:04;26.30;67.90
14850;DHT22;7517;48.400;11.770;2023-07-24T10:32:32;26.40;67.70
14850;DHT22;7517;48.400;11.770;2023-07-24T10:35:06;26.50;67.80
14850;DHT22;7517;48.400;11.770;2023-07-24T10:37:35;26.50;67.20
14850;DHT22;7517;48.400;11.770;2023-07-24T10:40:04;26.50;67.80
14850;DHT22;7517;48.400;11.770;2023-07-24T10:42:33;26.50;67.50
14850;DHT22;7517;48.400;11.770;2023-07-24T10:45:07;26.60;67.10
14850;DHT22;7517;48.400;11.770;2023-07-24T10:47:34;26.70;67.40
14850;DHT22;7517;48.400;11.770;2023-07-24T10:50:02;26.70;66.90
14850;DHT22;7517;48.400;11.770;2023-07-24T10:52:31;26.80;66.40
14850;DHT22;7517;48.400;11.770;2023-07-24T10:55:00;26.80;66.60
14850;DHT22;7517;48.400;11.770;2023-07-24T10:57:29;26.90;66.80
14850;DHT22;7517;48.400;11.770;2023-07-24T10:59:56;26.90;66.40
14850;DHT22;7517;48.400;11.770;2023-07-24T11:02:27;27.00;67.30
14850;DHT22;7517;48.400;11.770;2023-07-24T11:04:58;27.00;66.40
14850;DHT22;7517;48.400;11.770;2023-07-24T11:07:32;27.00;66.70
14850;DHT22;7517;48.400;11.770;2023-07-24T11:09:59;27.10;66.10
14850;DHT22;7517;48.400;11.770;2023-07-24T11:12:27;27.10;65.70
14850;DHT22;7517;48.400;11.770;2023-07-24T11:14:56;27.10;66.00
14850;DHT22;7517;48.400;11.770;2023-07-24T11:17:35;27.10;66.40
14850;DHT22;7517;48.400;11.770;2023-07-24T11:20:10;27.20;64.80
14850;DHT22;7517;48.400;11.770;2023-07-24T11:22:39;27.20;64.50
14850;DHT22;7517;48.400;11.770;2023-07-24T11:25:08;27.30;65.60
14850;DHT22;7517;48.400;11.770;2023-07-24T11:27:39;27.30;65.00
14850;DHT22;7517;48.400;11.770;2023-07-24T11:30:10;27.40;64.50
14850;DHT22;7517;48.400;11.770;2023-07-24T11:32:40;27.50;64.30
14850;DHT22;7517;48.400;11.770;2023-07-24T11:35:09;27.50;63.50
14850;DHT22;7517;48.400;11.770;2023-07-24T11:37:36;27.60;62.50
14850;DHT22;7517;48.400;11.770;2023-07-24T11:40:05;27.60;62.60
14850;DHT22;7517;48.400;11.770;2023-07-24T11:42:38;27.70;62.20
14850;DHT22;7517;48.400;11.770;2023-07-24T11:45:07;27.70;61.80
14850;DHT22;7517;48.400;11.770;2023-07-24T11:47:44;27.80;61.50
14850;DHT22;7517;48.400;11.770;2023-07-24T11:50:13;27.80;60.40
14850;DHT22;7517;48.400;11.770;2023-07-24T11:52:42;27.90;59.30
14850;DHT22;7517;48.400;11.770;2023-07-24T11:55:11;27.90;59.10
14850;DHT22;7517;48.400;11.770;2023-07-24T11:57:39;27.90;58.80
14850;DHT22;7517;48.400;11.770;2023-07-24T12:00:18;28.00;58.80
14850;DHT22;7517;48.400;11.770;2023-07-24T12:02:48;28.00;58.00
14850;DHT22;7517;48.400;11.770;2023-07-24T12:05:17;28.10;58.60
14850;DHT22;7517;48.400;11.770;2023-07-24T12:07:44;28.10;59.10
14850;DHT22;7517;48.400;11.770;2023-07-24T12:10:13;28.20;58.60
14850;DHT22;7517;48.400;11.770;2023-07-24T12:12:52;28.30;58.70
14850;DHT22;7517;48.400;11.770;2023-07-24T12:15:19;28.40;58.30
14850;DHT22;7517;48.400;11.770;2023-07-24T12:17:48;28.50;57.90
14850;DHT22;7517;48.400;11.770;2023-07-24T12:20:15;28.50;58.10
14850;DHT22;7517;48.400;11.770;2023-07-24T12:22:42;28.60;57.40
14850;DHT22;7517;48.400;11.770;2023-07-24T12:25:09;28.60;56.90
14850;DHT22;7517;48.400;11.770;2023-07-24T12:27:37;28.60;56.70
14850;DHT22;7517;48.400;11.770;2023-07-24T12:30:06;28.50;57.60
14850;DHT22;7517;48.400;11.770;2023-07-24T12:32:34;28.50;57.30
14850;DHT22;7517;48.400;11.770;2023-07-24T12:35:03;28.50;57.30
14850;DHT22;7517;48.400;11.770;2023-07-24T12:37:31;28.40;57.80
14850;DHT22;7517;48.400;11.770;2023-07-24T12:39:58;28.40;58.50
14850;DHT22;7517;48.400;11.770;2023-07-24T12:42:26;28.30;59.50
14850;DHT22;7517;48.400;11.770;2023-07-24T12:44:53;28.20;60.50
14850;DHT22;7517;48.400;11.770;2023-07-24T12:47:20;28.10;61.50
14850;DHT22;7517;48.400;11.770;2023-07-24T12:49:47;27.90;62.50
14850;DHT22;7517;48.400;11.770;2023-07-24T12:52:16;27.60;63.00
14850;DHT22;7517;48.400;11.770;2023-07-24T12:54:44;27.40;62.30
14850;DHT22;7517;48.400;11.770;2023-07-24T12:57:12;27.20;63.40
14850;DHT22;7517;48.400;11.770;2023-07-24T12:59:39;27.00;63.70
14850;DHT22;7517;48.400;11.770;2023-07-24T13:02:06;26.80;64.30
14850;DHT22;7517;48.400;11.770;2023-07-24T13:04:34;26.70;65.30
14850;DHT22;7517;48.400;11.770;2023-07-24T13:07:01;26.50;65.30
14850;DHT22;7517;48.400;11.770;2023-07-24T13:09:31;26.40;65.40
14850;DHT22;7517;48.400;11.770;2023-07-24T13:11:58;26.30;65.80
14850;DHT22;7517;48.400;11.770;2023-07-24T13:14:25;26.20;66.30
14850;DHT22;7517;48.400;11.770;2023-07-24T13:16:52;26.10;67.20
14850;DHT22;7517;48.400;11.770;2023-07-24T13:19:19;26.00;67.60
14850;DHT22;7517;48.400;11.770;2023-07-24T13:21:47;25.90;68.40
14850;DHT22;7517;48.400;11.770;2023-07-24T13:24:14;25.80;68.60
14850;DHT22;7517;48.400;11.770;2023-07-24T13:26:43;25.80;68.60
14850;DHT22;7517;48.400;11.770;2023-07-24T13:29:10;25.80;69.50
14850;DHT22;7517;48.400;11.770;2023-07-24T13:31:37;25.70;69.90
14850;DHT22;7517;48.400;11.770;2023-07-24T13:34:06;25.70;70.20
14850;DHT22;7517;48.400;11.770;2023-07-24T13:36:33;25.70;70.30
14850;DHT22;7517;48.400;11.770;2023-07-24T13:39:01;25.70;69.70
14850;DHT22;7517;48.400;11.770;2023-07-24T13:41:28;25.70;69.70
14850;DHT22;7517;48.400;11.770;2023-07-24T13:43:57;25.70;69.10
14850;DHT22;7517;48.400;11.770;2023-07-24T13:46:24;25.70;69.00
14850;DHT22;7517;48.400;11.770;2023-07-24T13:48:51;25.70;69.20
14850;DHT22;7517;48.400;11.770;2023-07-24T13:51:18;25.60;69.10
14850;DHT22;7517;48.400;11.770;2023-07-24T13:53:46;25.60;69.90
14850;DHT22;7517;48.400;11.770;2023-07-24T13:56:14;25.60;69.70
14850;DHT22;7517;48.400;11.770;2023-07-24T13:58:44;25.60;69.90
14850;DHT22;7517;48.400;11.770;2023-07-24T14:01:12;25.60;70.60
14850;DHT22;7517;48.400;11.770;2023-07-24T14:03:39;25.60;71.30
14850;DHT22;7517;48.400;11.770;2023-07-24T14:06:07;25.60;71.60
14850;DHT22;7517;48.400;11.770;2023-07-24T14:08:34;25.70;71.20
14850;DHT22;7517;48.400;11.770;2023-07-24T14:11:02;25.70;71.10
14850;DHT22;7517;48.400;11.770;2023-07-24T14:13:29;25.70;70.80
14850;DHT22;7517;48.400;11.770;2023-07-24T14:15:56;25.70;70.80
14850;DHT22;7517;48.400;11.770;2023-07-24T14:18:25;25.70;70.80
14850;DHT22;7517;48.400;11.770;2023-07-24T14:20:52;25.80;70.20
14850;DHT22;7517;48.400;11.770;2023-07-24T14:23:22;25.80;70.00
14850;DHT22;7517;48.400;11.770;2023-07-24T14:25:49;25.70;69.70
14850;DHT22;7517;48.400;11.770;2023-07-24T14:28:16;25.80;70.00
14850;DHT22;7517;48.400;11.770;2023-07-24T14:30:43;25.80;69.40
14850;DHT22;7517;48.400;11.770;2023-07-24T14:33:10;25.80;69.00
14850;DHT22;7517;48.400;11.770;2023-07-24T14:35:39;25.80;68.90
14850;DHT22;7517;48.400;11.770;2023-07-24T14:38:06;25.80;69.20
14850;DHT22;7517;48.400;11.770;2023-07-24T14:40:34;25.80;68.90
14850;DHT22;7517;48.400;11.770;2023-07-24T14:43:01;25.80;68.00
14850;DHT22;7517;48.400;11.770;2023-07-24T14:45:30;25.80;68.00
14850;DHT22;7517;48.400;11.770;2023-07-24T14:47:57;25.80;68.30
14850;DHT22;7517;48.400;11.770;2023-07-24T14:50:24;25.80;68.90
14850;DHT22;7517;48.400;11.770;2023-07-24T14:52:54;25.80;68.90
14850;DHT22;7517;48.400;11.770;2023-07-24T14:55:21;25.90;68.30
14850;DHT22;7517;48.400;11.770;2023-07-24T14:57:49;25.90;68.30
14850;DHT22;7517;48.400;11.770;2023-07-24T15:00:16;25.90;68.00
14850;DHT22;7517;48.400;11.770;2023-07-24T15:02:44;26.00;66.90
14850;DHT22;7517;48.400;11.770;2023-07-24T15:05:11;26.00;66.40
14850;DHT22;7517;48.400;11.770;2023-07-24T15:07:38;26.00;67.10
14850;DHT22;7517;48.400;11.770;2023-07-24T15:10:08;26.00;67.30
14850;DHT22;7517;48.400;11.770;2023-07-24T15:12:35;26.00;67.20
14850;DHT22;7517;48.400;11.770;2023-07-24T15:15:03;26.10;65.60
14850;DHT22;7517;48.400;11.770;2023-07-24T15:17:32;26.10;65.60
14850;DHT22;7517;48.400;11.770;2023-07-24T15:19:59;26.10;65.90
14850;DHT22;7517;48.400;11.770;2023-07-24T15:22:27;26.20;65.40
14850;DHT22;7517;48.400;11.770;2023-07-24T15:24:54;26.20;64.70
14850;DHT22;7517;48.400;11.770;2023-07-24T15:27:23;26.20;65.10
14850;DHT22;7517;48.400;11.770;2023-07-24T15:29:51;26.20;64.40
14850;DHT22;7517;48.400;11.770;2023-07-24T15:32:18;26.20;64.70
14850;DHT22;7517;48.400;11.770;2023-07-24T15:34:45;26.30;64.80
14850;DHT22;7517;48.400;11.770;2023-07-24T15:37:12;26.30;65.10